Phoenix Park, Pennsylvania
Current Conditions -  °F | °C
As of 4:58 PM on Wednesday 28 Jan 2015 (Local Time) from KMUI Reporting Station
Clear Clear  
Wind Chill: 25°   Ceiling: Unl
Heat Index: 33°   Visibility: 10mi
Dew Point: -1°   Wind: 9mph
Humidity: 24%   Direction: 320°NW
Pressure: 30.2"   Gusts: NA
Location:  40.6882°N, 76.264°W
Report Text: KMUI 282158Z AUTO 32008KT 10SM CLR 00/M18 A3020 RMK AO2 SLP237 T00031182
Loading
Personal Weather Stations






























Interactive Weather Map New forecast layout! Learn more

10-Day Weather Forecast

Advertisements
Track Severe Weather on mobile